Metar z połowy godziny Komunikat METAR ze strony awiacja.imgw.pl Metar G00 EPKK METAR EPKK 271430Z VRB01KT 9999 BKN050 04/M02 Q0996 =